Ana Sayfa
METAR-TAF:

METAR-TAF

Havaalanları :

Iğdır, Türkiye

Iğdır Şehit Bülent Aydın Havalimanı

Enlem: 39-58-36N, Boylam: 43-52-36E, yükseklik: 945 m

Güncel hava durumu gözlemi

Rapor saat 13:50 UTC de 50 dakika önce yapıldı.
Rüzgar güney/güneybatıdan 5 kt, güney/güneydoğu ve güneybatı arasında değişken
Sıcaklık 12°C
Nem 47%
Basınç 1011 hPa
Görüş mesafesi 10 km veya daha fazla
8000 ft yükseklikte parçalı bulutlu

METAR: LTCT 231350Z 20005KT 160V230 9999 SCT080 12/01 Q1011

Saat: 17:40 (14:40 UTC)

Tahmin

Rapor saat 13:40 UTC de 1 saat ve 0 dakika önce yapıldı.
Ayın 23'si saat 15 UTC'den ayın 23'si saat 24 UTC'ye kadar geçerli Tahmin
Rüzgar değişken yönden 2 kt
Görüş mesafesi 10 km veya daha fazla
8000 ft yükseklikte az bulutlu

TAF: LTCT 231340Z 2315/2324 VRB02KT 9999 FEW080

4.000'den fazla havaalanı için hava durumu gözlemleri ve tahminleri (METAR ve TAF raporları).

Kullanılabilir istasyonlar harita üzerinde sarı ve kırmızı noktalarla gösterilir.

İstasyonun adını görmek için fareyi noktanın üzerinde gezdirin.

Sonrasında hava gözlem ve tahminlerini görmek için tıklayın.

Haritayı değiştirmek için: yaklaştırmak için siyah artı işaretli yeşil düğmeye ve uzaklaştırmak için de eksi işaretli düğmeye hızla tıklayın; bitişik haritalar için yeşil okları kullanın.


METAR-TAF: